createdAt,value
2022-11-24T00:01:08.141Z,99519.66
2022-11-24T00:03:35.783Z,99518.78
2022-11-24T00:06:11.098Z,99512.84
2022-11-24T00:08:39.404Z,99524.03
2022-11-24T00:11:11.776Z,99512.13
2022-11-24T00:13:39.596Z,99517.31
2022-11-24T00:16:13.538Z,99506.22
2022-11-24T00:18:42.076Z,99508.69
2022-11-24T00:21:09.363Z,99514.50
2022-11-24T00:23:37.194Z,99511.88
2022-11-24T00:26:28.238Z,99516.09
2022-11-24T00:28:58.278Z,99512.66
2022-11-24T00:31:27.016Z,99524.59
2022-11-24T00:33:56.521Z,99520.34
2022-11-24T00:36:25.622Z,99536.69
2022-11-24T00:38:57.481Z,99535.84
2022-11-24T00:41:25.661Z,99526.56
2022-11-24T00:43:53.323Z,99520.53
2022-11-24T00:46:20.921Z,99523.97
2022-11-24T00:48:48.658Z,99524.88
2022-11-24T00:51:17.946Z,99530.94
2022-11-24T00:53:45.332Z,99532.59
2022-11-24T00:56:12.628Z,99534.22
2022-11-24T00:58:40.179Z,99541.66
2022-11-24T01:01:12.793Z,99538.16
2022-11-24T01:03:40.854Z,99538.28
2022-11-24T01:06:11.681Z,99536.56
2022-11-24T01:08:39.665Z,99537.44
2022-11-24T01:11:22.941Z,99537.44
2022-11-24T01:13:53.856Z,99542.56
2022-11-24T01:16:24.410Z,99536.56
2022-11-24T01:18:51.918Z,99536.56
2022-11-24T01:21:19.496Z,99538.28
2022-11-24T01:23:46.863Z,99537.56
2022-11-24T01:26:19.737Z,99532.47
2022-11-24T01:28:47.826Z,99535.09
2022-11-24T01:31:16.695Z,99536.84
2022-11-24T01:33:44.080Z,99530.97
2022-11-24T01:36:11.243Z,99530.16
2022-11-24T01:38:38.534Z,99530.25
2022-11-24T01:41:13.869Z,99530.16
2022-11-24T01:43:44.900Z,99529.31
2022-11-24T01:46:31.502Z,99538.72
2022-11-24T01:49:22.941Z,99533.41
2022-11-24T01:52:10.698Z,99539.34
2022-11-24T01:54:43.100Z,99551.22
2022-11-24T01:57:16.646Z,99553.66
2022-11-24T01:59:46.686Z,99544.22
2022-11-24T02:02:16.469Z,99542.56
2022-11-24T02:04:44.658Z,99544.19
2022-11-24T02:07:12.318Z,99545.84
2022-11-24T02:09:52.139Z,99535.63
2022-11-24T02:12:19.297Z,99540.78
2022-11-24T02:14:46.896Z,99539.88
2022-11-24T02:17:14.176Z,99540.78
2022-11-24T02:19:41.359Z,99542.44
2022-11-24T02:22:17.816Z,99547.53
2022-11-24T02:24:52.657Z,99537.31
2022-11-24T02:27:20.251Z,99543.34
2022-11-24T02:29:48.044Z,99533.94
2022-11-24T02:32:16.039Z,99538.38
2022-11-24T02:34:43.197Z,99538.44
2022-11-24T02:37:10.318Z,99542.78
2022-11-24T02:39:37.988Z,99534.22
2022-11-24T02:42:11.361Z,99541.00
2022-11-24T02:44:42.919Z,99536.72
2022-11-24T02:47:12.313Z,99542.66
2022-11-24T02:49:39.579Z,99544.28
2022-11-24T02:52:07.411Z,99547.63
2022-11-24T02:54:35.136Z,99539.97
2022-11-24T02:57:02.380Z,99549.34
2022-11-24T02:59:29.601Z,99548.38
2022-11-24T03:01:56.763Z,99549.22
2022-11-24T03:04:23.902Z,99550.94
2022-11-24T03:06:51.061Z,99545.78
2022-11-24T03:09:18.111Z,99550.88
2022-11-24T03:11:45.219Z,99538.13
2022-11-24T03:14:12.540Z,99539.06
2022-11-24T03:16:39.646Z,99542.50
2022-11-24T03:19:06.818Z,99549.34
2022-11-24T03:21:33.842Z,99545.94
2022-11-24T03:24:00.887Z,99540.72
2022-11-24T03:26:28.122Z,99541.44
2022-11-24T03:28:56.340Z,99543.06
2022-11-24T03:31:24.498Z,99544.81
2022-11-24T03:33:51.623Z,99536.22
2022-11-24T03:36:19.221Z,99538.88
2022-11-24T03:38:46.379Z,99546.63
2022-11-24T03:41:14.139Z,99543.25
2022-11-24T03:43:44.023Z,99553.59
2022-11-24T03:46:12.582Z,99550.97
2022-11-24T03:48:39.980Z,99555.13
2022-11-24T03:51:07.138Z,99559.47
2022-11-24T03:53:35.020Z,99559.59
2022-11-24T03:56:02.647Z,99558.88
2022-11-24T03:58:30.038Z,99554.72
2022-11-24T04:00:57.636Z,99554.75
2022-11-24T04:03:25.201Z,99565.09
2022-11-24T04:05:52.378Z,99563.28
2022-11-24T04:08:19.879Z,99564.16
2022-11-24T04:10:51.249Z,99574.41
2022-11-24T04:13:20.179Z,99575.22
2022-11-24T04:15:47.525Z,99585.41
2022-11-24T04:18:15.201Z,99593.91
2022-11-24T04:20:43.083Z,99594.69
2022-11-24T04:23:11.302Z,99597.16
2022-11-24T04:25:38.702Z,99604.00
2022-11-24T04:28:05.768Z,99605.66
2022-11-24T04:30:32.939Z,99602.13
2022-11-24T04:33:00.002Z,99603.81
2022-11-24T04:35:27.181Z,99610.66
2022-11-24T04:37:54.621Z,99614.09
2022-11-24T04:40:21.825Z,99618.34
2022-11-24T04:42:55.888Z,99616.59
2022-11-24T04:45:23.899Z,99624.28
2022-11-24T04:47:51.249Z,99626.03
2022-11-24T04:50:18.561Z,99626.94
2022-11-24T04:52:46.100Z,99626.94
2022-11-24T04:55:13.801Z,99625.16
2022-11-24T04:57:40.825Z,99616.59
2022-11-24T05:00:09.287Z,99620.03
2022-11-24T05:02:37.135Z,99615.06
2022-11-24T05:05:05.943Z,99609.06
2022-11-24T05:07:33.488Z,99613.31
2022-11-24T05:10:19.188Z,99609.19
2022-11-24T05:12:51.480Z,99605.91
2022-11-24T05:15:18.701Z,99611.06
2022-11-24T05:17:45.694Z,99614.44
2022-11-24T05:20:12.817Z,99617.69
2022-11-24T05:22:39.819Z,99613.44
2022-11-24T05:25:07.154Z,99611.69
2022-11-24T05:27:34.407Z,99615.06
2022-11-24T05:30:01.749Z,99612.50
2022-11-24T05:32:28.850Z,99620.19
2022-11-24T05:34:56.875Z,99627.84
2022-11-24T05:37:25.792Z,99626.16
2022-11-24T05:39:54.851Z,99629.53
2022-11-24T05:42:46.228Z,99629.59
2022-11-24T05:45:17.448Z,99631.41
2022-11-24T05:47:45.049Z,99630.50
2022-11-24T05:50:13.839Z,99638.19
2022-11-24T05:52:41.088Z,99636.53
2022-11-24T05:55:08.838Z,99634.09
2022-11-24T05:57:36.263Z,99635.72
2022-11-24T06:00:05.566Z,99629.72
2022-11-24T06:02:39.644Z,99625.31
2022-11-24T06:05:07.119Z,99629.53
2022-11-24T06:07:34.296Z,99625.28
2022-11-24T06:10:01.309Z,99620.25
2022-11-24T06:12:28.286Z,99621.19
2022-11-24T06:14:55.307Z,99616.13
2022-11-24T06:17:22.350Z,99623.09
2022-11-24T06:19:51.208Z,99629.16
2022-11-24T06:22:19.395Z,99630.84
2022-11-24T06:24:46.824Z,99641.66
2022-11-24T06:27:14.274Z,99639.03
2022-11-24T06:29:41.322Z,99648.47
2022-11-24T06:32:08.924Z,99645.88
2022-11-24T06:34:36.567Z,99647.50
2022-11-24T06:37:03.884Z,99656.88
2022-11-24T06:39:31.024Z,99647.59
2022-11-24T06:41:58.763Z,99660.41
2022-11-24T06:44:25.742Z,99660.31
2022-11-24T06:46:52.785Z,99668.81
2022-11-24T06:49:19.809Z,99671.34
2022-11-24T06:51:47.085Z,99672.22
2022-11-24T06:54:21.067Z,99678.19
2022-11-24T06:56:48.443Z,99688.47
2022-11-24T06:59:20.446Z,99696.13
2022-11-24T07:01:47.633Z,99699.50
2022-11-24T07:04:15.121Z,99691.66
2022-11-24T07:06:42.714Z,99697.69
2022-11-24T07:09:11.169Z,99696.09
2022-11-24T07:11:38.770Z,99700.50
2022-11-24T07:14:05.823Z,99698.84
2022-11-24T07:16:33.623Z,99701.38
2022-11-24T07:19:01.099Z,99698.84
2022-11-24T07:21:29.224Z,99698.03
2022-11-24T07:23:57.400Z,99698.09
2022-11-24T07:26:25.460Z,99706.53
2022-11-24T07:28:52.731Z,99709.09
2022-11-24T07:31:21.846Z,99708.28
2022-11-24T07:33:53.309Z,99716.75
2022-11-24T07:36:21.052Z,99715.00
2022-11-24T07:38:48.172Z,99715.66
2022-11-24T07:41:16.984Z,99715.56
2022-11-24T07:43:44.162Z,99715.72
2022-11-24T07:46:13.438Z,99710.72
2022-11-24T07:48:40.742Z,99716.72
2022-11-24T07:51:08.138Z,99706.59
2022-11-24T07:53:36.033Z,99707.47
2022-11-24T07:56:04.367Z,99717.84
2022-11-24T07:58:33.789Z,99712.47
2022-11-24T08:01:09.853Z,99710.59
2022-11-24T08:03:37.405Z,99708.06
2022-11-24T08:08:51.521Z,99704.66
2022-11-24T08:11:18.642Z,99698.72
2022-11-24T08:13:46.107Z,99697.00
2022-11-24T08:16:15.283Z,99700.72
2022-11-24T08:18:43.367Z,99692.56
2022-11-24T08:21:14.789Z,99698.59
2022-11-24T08:23:42.521Z,99699.38
2022-11-24T08:26:14.034Z,99702.78
2022-11-24T08:28:41.349Z,99707.06
2022-11-24T08:31:14.857Z,99707.06
2022-11-24T08:33:42.587Z,99711.47
2022-11-24T08:36:12.391Z,99717.41
2022-11-24T08:38:39.690Z,99721.63
2022-11-24T08:41:10.195Z,99722.41
2022-11-24T08:43:37.486Z,99722.44
2022-11-24T08:46:12.584Z,99720.88
2022-11-24T08:48:40.128Z,99726.84
2022-11-24T08:51:12.396Z,99720.84
2022-11-24T08:53:40.402Z,99722.53
2022-11-24T08:56:08.863Z,99724.22
2022-11-24T08:58:36.624Z,99722.59
2022-11-24T09:01:09.274Z,99718.47
2022-11-24T09:03:37.842Z,99728.81
2022-11-24T09:06:06.225Z,99728.88
2022-11-24T09:08:34.283Z,99739.06
2022-11-24T09:11:10.060Z,99726.25
2022-11-24T09:13:38.060Z,99731.44
2022-11-24T09:16:07.307Z,99732.25
2022-11-24T09:18:34.908Z,99737.41
2022-11-24T09:21:12.080Z,99727.28
2022-11-24T09:23:39.844Z,99740.97
2022-11-24T09:26:08.963Z,99734.84
2022-11-24T09:28:36.038Z,99738.97
2022-11-24T09:31:04.623Z,99731.38
2022-11-24T09:33:32.801Z,99728.84
2022-11-24T09:35:59.958Z,99728.88
2022-11-24T09:38:27.421Z,99727.31
2022-11-24T09:40:57.887Z,99735.97
2022-11-24T09:43:40.395Z,99741.78
2022-11-24T09:46:23.766Z,99745.00
2022-11-24T09:48:53.437Z,99748.31
2022-11-24T09:51:24.998Z,99744.06
2022-11-24T09:53:54.378Z,99735.66
2022-11-24T09:56:23.368Z,99742.66
2022-11-24T09:58:53.719Z,99740.09
2022-11-24T10:01:28.083Z,99739.25
2022-11-24T10:03:55.351Z,99747.69
2022-11-24T10:06:47.177Z,99750.34
2022-11-24T10:09:32.651Z,99746.94
2022-11-24T10:12:24.397Z,99747.13
2022-11-24T10:15:12.951Z,99739.63
2022-11-24T10:17:53.403Z,99744.69
2022-11-24T10:20:29.418Z,99747.34
2022-11-24T10:23:19.129Z,99751.63
2022-11-24T10:25:48.948Z,99750.91
2022-11-24T10:28:16.585Z,99745.91
2022-11-24T10:30:43.755Z,99747.69
2022-11-24T10:33:30.011Z,99731.50
2022-11-24T10:36:22.179Z,99733.28
2022-11-24T10:38:55.538Z,99736.84
2022-11-24T10:41:35.010Z,99733.50
2022-11-24T10:44:02.014Z,99736.91
2022-11-24T10:46:31.528Z,99746.22
2022-11-24T10:49:04.656Z,99737.50
2022-11-24T10:51:31.604Z,99740.88
2022-11-24T10:54:02.880Z,99743.34
2022-11-24T10:56:42.598Z,99747.66
2022-11-24T10:59:39.635Z,99756.25
2022-11-24T11:02:30.193Z,99749.38
2022-11-24T11:04:57.565Z,99757.16
2022-11-24T11:07:26.380Z,99749.47
2022-11-24T11:10:21.343Z,99752.03
2022-11-24T11:12:48.560Z,99747.84
2022-11-24T11:15:31.754Z,99741.06
2022-11-24T11:18:02.347Z,99739.38
2022-11-24T11:20:31.990Z,99738.56
2022-11-24T11:23:01.647Z,99744.53
2022-11-24T11:25:33.230Z,99740.13
2022-11-24T11:28:29.290Z,99746.22
2022-11-24T11:31:22.234Z,99731.72
2022-11-24T11:34:09.428Z,99741.78
2022-11-24T11:36:45.087Z,99739.41
2022-11-24T11:39:33.059Z,99746.63
2022-11-24T11:42:45.443Z,99746.72
2022-11-24T11:45:26.807Z,99747.56
2022-11-24T11:48:02.964Z,99745.63
2022-11-24T11:50:59.465Z,99752.44
2022-11-24T11:53:46.556Z,99753.16
2022-11-24T11:56:22.850Z,99748.91
2022-11-24T11:59:27.261Z,99750.53
2022-11-24T12:02:15.845Z,99747.84
2022-11-24T12:04:52.636Z,99743.50
2022-11-24T12:07:38.231Z,99745.97
2022-11-24T12:10:11.138Z,99752.72
2022-11-24T12:12:52.458Z,99748.34
2022-11-24T12:15:22.408Z,99756.94
2022-11-24T12:18:00.152Z,99757.84
2022-11-24T12:21:01.820Z,99753.59
2022-11-24T12:23:50.242Z,99763.16
2022-11-24T12:26:54.700Z,99769.25
2022-11-24T12:29:44.880Z,99754.66
2022-11-24T12:32:49.457Z,99765.78
2022-11-24T12:35:41.673Z,99764.91
2022-11-24T12:38:30.940Z,99757.94
2022-11-24T12:41:39.292Z,99762.13
2022-11-24T12:43:56.958Z,99762.97
2022-11-24T12:46:59.218Z,99760.22
2022-11-24T12:49:39.132Z,99761.09
2022-11-24T12:52:18.535Z,99761.97
2022-11-24T12:54:45.504Z,99760.28
2022-11-24T12:57:36.878Z,99759.44
2022-11-24T13:00:07.589Z,99761.28
2022-11-24T13:02:47.129Z,99767.19
2022-11-24T13:05:26.327Z,99771.47
2022-11-24T13:07:58.651Z,99769.81
2022-11-24T13:10:53.726Z,99771.53
2022-11-24T13:13:14.835Z,99771.41
2022-11-24T13:18:57.472Z,99779.09
2022-11-24T13:21:37.078Z,99781.72
2022-11-24T13:24:23.722Z,99785.22
2022-11-24T13:27:26.787Z,99790.38
2022-11-24T13:29:54.109Z,99781.84
2022-11-24T13:32:23.927Z,99789.47
2022-11-24T13:34:55.194Z,99784.25
2022-11-24T13:37:31.700Z,99780.84
2022-11-24T13:40:23.276Z,99797.09
2022-11-24T13:43:01.557Z,99790.94
2022-11-24T13:45:54.841Z,99787.59
2022-11-24T13:48:22.364Z,99788.53
2022-11-24T13:50:49.895Z,99792.78
2022-11-24T13:53:45.688Z,99803.91
2022-11-24T13:56:12.705Z,99807.34
2022-11-24T13:58:41.299Z,99803.97
2022-11-24T14:01:29.241Z,99814.16
2022-11-24T14:06:51.827Z,99807.41
2022-11-24T14:09:26.977Z,99814.13
2022-11-24T14:12:19.123Z,99812.41
2022-11-24T14:14:47.200Z,99814.31
2022-11-24T14:17:14.720Z,99815.97
2022-11-24T14:19:46.676Z,99807.41
2022-11-24T14:22:20.233Z,99806.44
2022-11-24T14:24:55.837Z,99814.91
2022-11-24T14:27:36.615Z,99816.59
2022-11-24T14:30:17.762Z,99818.41
2022-11-24T14:33:01.978Z,99820.69
2022-11-24T14:35:31.861Z,99815.38
2022-11-24T14:38:03.035Z,99827.44
2022-11-24T14:40:50.053Z,99830.03
2022-11-24T14:43:32.587Z,99841.22
2022-11-24T14:46:05.353Z,99833.63
2022-11-24T14:48:52.746Z,99829.38
2022-11-24T14:51:23.609Z,99827.78
2022-11-24T14:54:15.233Z,99838.06
2022-11-24T14:56:58.043Z,99838.78
2022-11-24T14:59:27.477Z,99833.47
2022-11-24T15:01:54.951Z,99838.66
2022-11-24T15:07:16.801Z,99842.56
2022-11-24T15:09:53.736Z,99845.38
2022-11-24T15:12:41.802Z,99849.03
2022-11-24T15:15:15.193Z,99849.19
2022-11-24T15:17:48.226Z,99860.34
2022-11-24T15:20:23.594Z,99857.78
2022-11-24T15:22:52.556Z,99858.66
2022-11-24T15:25:33.995Z,99864.66
2022-11-24T15:28:01.441Z,99863.81
2022-11-24T15:30:29.629Z,99863.81
2022-11-24T15:32:58.085Z,99863.31
2022-11-24T15:35:27.077Z,99863.59
2022-11-24T15:37:54.128Z,99866.25
2022-11-24T15:40:21.296Z,99865.56
2022-11-24T15:42:53.654Z,99870.63
2022-11-24T15:45:22.403Z,99874.03
2022-11-24T15:47:49.475Z,99877.38
2022-11-24T15:50:16.949Z,99874.88
2022-11-24T15:52:44.438Z,99882.13
2022-11-24T15:55:19.788Z,99884.84
2022-11-24T15:57:47.134Z,99887.88
2022-11-24T16:00:20.131Z,99889.97
2022-11-24T16:02:47.696Z,99890.91
2022-11-24T16:05:15.454Z,99876.81
2022-11-24T16:07:42.668Z,99877.28
2022-11-24T16:10:29.033Z,99877.66
2022-11-24T16:12:56.025Z,99877.25
2022-11-24T16:15:23.325Z,99878.00
2022-11-24T16:17:50.243Z,99881.34
2022-11-24T16:20:17.585Z,99882.25
2022-11-24T16:22:44.777Z,99871.16
2022-11-24T16:25:12.284Z,99885.00
2022-11-24T16:27:39.458Z,99882.72
2022-11-24T16:30:09.727Z,99885.38
2022-11-24T16:32:36.654Z,99893.84
2022-11-24T16:35:04.460Z,99889.50
2022-11-24T16:37:32.207Z,99891.09
2022-11-24T16:39:59.176Z,99893.44
2022-11-24T16:42:26.411Z,99895.00
2022-11-24T16:44:53.558Z,99900.66
2022-11-24T16:47:20.693Z,99904.63
2022-11-24T16:49:50.557Z,99901.03
2022-11-24T16:52:18.331Z,99891.31
2022-11-24T16:54:48.428Z,99897.81
2022-11-24T16:57:15.819Z,99898.97
2022-11-24T16:59:48.692Z,99900.06
2022-11-24T17:02:16.220Z,99898.50
2022-11-24T17:04:43.296Z,99893.41
2022-11-24T17:07:10.379Z,99885.63
2022-11-24T17:09:40.508Z,99884.16
2022-11-24T17:12:07.996Z,99878.28
2022-11-24T17:14:35.226Z,99884.31
2022-11-24T17:19:43.883Z,99890.28
2022-11-24T17:22:10.961Z,99906.28
2022-11-24T17:24:37.924Z,99898.56
2022-11-24T17:27:04.956Z,99906.97
2022-11-24T17:29:31.862Z,99904.41
2022-11-24T17:31:58.820Z,99902.81
2022-11-24T17:34:25.804Z,99908.13
2022-11-24T17:36:52.735Z,99909.78
2022-11-24T17:39:24.512Z,99906.97
2022-11-24T17:41:51.833Z,99919.88
2022-11-24T17:44:19.262Z,99916.28
2022-11-24T17:46:46.592Z,99921.41
2022-11-24T17:49:15.258Z,99921.25
2022-11-24T17:51:42.784Z,99929.69
2022-11-24T17:54:44.847Z,99927.06
2022-11-24T17:57:02.427Z,99935.31
2022-11-24T17:59:30.228Z,99938.53
2022-11-24T18:01:58.143Z,99932.75
2022-11-24T18:04:26.220Z,99936.19
2022-11-24T18:06:53.498Z,99947.41
2022-11-24T18:09:20.825Z,99953.59
2022-11-24T18:11:48.648Z,99945.31
2022-11-24T18:14:15.947Z,99952.88
2022-11-24T18:16:42.915Z,99955.25
2022-11-24T18:19:11.329Z,99955.25
2022-11-24T18:21:40.863Z,99959.34
2022-11-24T18:24:09.821Z,99957.47
2022-11-24T18:26:37.596Z,99958.56
2022-11-24T18:29:04.904Z,99958.38
2022-11-24T18:31:34.452Z,99962.09
2022-11-24T18:34:02.849Z,99965.22
2022-11-24T18:36:31.029Z,99967.56
2022-11-24T18:39:02.381Z,99961.47
2022-11-24T18:41:30.151Z,99954.91
2022-11-24T18:43:57.754Z,99959.03
2022-11-24T18:46:25.418Z,99969.00
2022-11-24T18:48:53.487Z,99970.84
2022-11-24T18:51:22.779Z,99973.09
2022-11-24T18:53:54.579Z,99979.81
2022-11-24T18:56:21.437Z,99980.56
2022-11-24T18:58:48.352Z,99987.94
2022-11-24T19:01:17.818Z,99983.53
2022-11-24T19:03:49.973Z,99987.94
2022-11-24T19:06:20.115Z,99990.53
2022-11-24T19:08:47.818Z,99983.06
2022-11-24T19:11:28.433Z,99987.59
2022-11-24T19:13:56.580Z,99983.88
2022-11-24T19:16:24.452Z,99973.03
2022-11-24T19:18:54.357Z,99979.88
2022-11-24T19:21:22.217Z,99984.16
2022-11-24T19:23:49.736Z,99970.81
2022-11-24T19:26:16.723Z,99978.56
2022-11-24T19:28:44.001Z,99974.41
2022-11-24T19:31:13.809Z,99981.22
2022-11-24T19:33:41.728Z,99981.59
2022-11-24T19:36:11.258Z,99985.13
2022-11-24T19:38:38.267Z,99984.09
2022-11-24T19:41:08.081Z,99986.75
2022-11-24T19:43:35.868Z,99998.56
2022-11-24T19:46:10.969Z,99997.00
2022-11-24T19:48:45.672Z,100007.03
2022-11-24T19:51:18.365Z,100004.13
2022-11-24T19:53:46.121Z,100011.59
2022-11-24T19:56:14.896Z,100015.88
2022-11-24T19:58:42.272Z,100022.84
2022-11-24T20:01:14.537Z,100024.13
2022-11-24T20:03:42.624Z,100025.38
2022-11-24T20:06:12.521Z,100023.03
2022-11-24T20:08:41.363Z,100015.47
2022-11-24T20:11:13.708Z,100018.84
2022-11-24T20:13:41.944Z,100021.41
2022-11-24T20:16:11.739Z,100014.47
2022-11-24T20:18:42.444Z,100011.03
2022-11-24T20:21:16.324Z,100023.94
2022-11-24T20:23:45.063Z,100012.91
2022-11-24T20:26:15.466Z,100011.34
2022-11-24T20:28:44.138Z,100015.56
2022-11-24T20:31:36.815Z,100021.47
2022-11-24T20:34:06.773Z,100030.13
2022-11-24T20:36:36.622Z,100025.03
2022-11-24T20:39:07.151Z,100027.69
2022-11-24T20:41:36.403Z,100026.03
2022-11-24T20:44:07.366Z,100026.09
2022-11-24T20:46:37.341Z,100024.38
2022-11-24T20:49:09.325Z,100033.72
2022-11-24T20:51:44.797Z,100032.09
2022-11-24T20:54:18.612Z,100030.53
2022-11-24T20:56:49.370Z,100034.00
2022-11-24T20:59:21.674Z,100046.06
2022-11-24T21:01:50.977Z,100039.28
2022-11-24T21:04:22.040Z,100043.56
2022-11-24T21:06:51.211Z,100050.44
2022-11-24T21:09:21.751Z,100059.94
2022-11-24T21:11:50.398Z,100060.81
2022-11-24T21:14:18.607Z,100059.91
2022-11-24T21:16:46.532Z,100059.81
2022-11-24T21:19:14.868Z,100065.03
2022-11-24T21:21:43.810Z,100068.34
2022-11-24T21:24:15.696Z,100068.25
2022-11-24T21:26:48.805Z,100062.31
2022-11-24T21:29:19.076Z,100064.81
2022-11-24T21:31:46.278Z,100064.00
2022-11-24T21:34:18.736Z,100066.47
2022-11-24T21:36:46.222Z,100071.59
2022-11-24T21:39:15.538Z,100063.78
2022-11-24T21:41:43.319Z,100073.97
2022-11-24T21:44:14.003Z,100071.56
2022-11-24T21:46:45.932Z,100069.19
2022-11-24T21:49:16.503Z,100064.09
2022-11-24T21:51:43.443Z,100065.03
2022-11-24T21:54:10.333Z,100066.78
2022-11-24T21:56:37.353Z,100066.91
2022-11-24T21:59:04.439Z,100062.72
2022-11-24T22:01:31.705Z,100065.41
2022-11-24T22:03:58.839Z,100060.31
2022-11-24T22:06:25.895Z,100063.75
2022-11-24T22:08:52.968Z,100063.75
2022-11-24T22:11:24.438Z,100067.25
2022-11-24T22:13:52.718Z,100064.72
2022-11-24T22:16:22.369Z,100066.47
2022-11-24T22:18:50.121Z,100065.63
2022-11-24T22:21:30.875Z,100066.56
2022-11-24T22:23:57.872Z,100074.22
2022-11-24T22:26:25.662Z,100069.03
2022-11-24T22:28:54.339Z,100076.72
2022-11-24T22:31:26.461Z,100070.88
2022-11-24T22:33:54.473Z,100071.00
2022-11-24T22:36:23.213Z,100071.03
2022-11-24T22:38:58.264Z,100065.06
2022-11-24T22:41:25.985Z,100071.16
2022-11-24T22:43:53.819Z,100068.63
2022-11-24T22:46:24.958Z,100069.47
2022-11-24T22:48:55.519Z,100056.75
2022-11-24T22:51:25.182Z,100063.63
2022-11-24T22:53:54.108Z,100066.22
2022-11-24T22:56:21.580Z,100066.22
2022-11-24T22:58:48.820Z,100062.00
2022-11-24T23:01:21.117Z,100070.53
2022-11-24T23:03:53.736Z,100068.88
2022-11-24T23:06:23.306Z,100062.94
2022-11-24T23:08:51.099Z,100058.69
2022-11-24T23:11:21.319Z,100058.75
2022-11-24T23:13:53.348Z,100067.44
2022-11-24T23:16:20.659Z,100061.22
2022-11-24T23:18:52.438Z,100059.38
2022-11-24T23:21:21.771Z,100062.78
2022-11-24T23:23:49.890Z,100063.69
2022-11-24T23:26:25.479Z,100061.06
2022-11-24T23:28:52.717Z,100061.13
2022-11-24T23:31:24.400Z,100056.94
2022-11-24T23:33:51.576Z,100063.94
2022-11-24T23:36:20.180Z,100066.38
2022-11-24T23:38:47.653Z,100073.09
2022-11-24T23:41:17.169Z,100078.19
2022-11-24T23:43:44.310Z,100085.84
2022-11-24T23:46:14.266Z,100082.34
2022-11-24T23:48:41.622Z,100082.47
2022-11-24T23:51:13.875Z,100073.09
2022-11-24T23:53:41.581Z,100080.84
2022-11-24T23:56:11.759Z,100077.19
2022-11-24T23:58:38.880Z,100075.47
